createdAt,value
2018-05-23T00:00:49.761Z,44.22
2018-05-23T00:01:59.919Z,44.31
2018-05-23T00:03:10.119Z,44.22
2018-05-23T00:04:20.315Z,44.12
2018-05-23T00:05:30.217Z,44.51
2018-05-23T00:06:41.326Z,44.31
2018-05-23T00:07:51.462Z,44.51
2018-05-23T00:09:01.359Z,44.6
2018-05-23T00:10:11.499Z,44.6
2018-05-23T00:11:21.675Z,44.79
2018-05-23T00:12:31.827Z,44.99
2018-05-23T00:13:42.021Z,45.28
2018-05-23T00:14:52.247Z,45.18
2018-05-23T00:16:02.519Z,45.37
2018-05-23T00:17:12.676Z,45.06
2018-05-23T00:18:22.581Z,45.28
2018-05-23T00:19:32.714Z,45.35
2018-05-23T00:20:42.847Z,45.25
2018-05-23T00:21:52.987Z,45.15
2018-05-23T00:23:03.165Z,44.96
2018-05-23T00:24:13.324Z,45.25
2018-05-23T00:25:23.467Z,45.06
2018-05-23T00:26:33.636Z,45.64
2018-05-23T00:27:43.799Z,45.64
2018-05-23T00:28:53.926Z,45.83
2018-05-23T00:30:04.064Z,46.12
2018-05-23T00:31:14.449Z,46.02
2018-05-23T00:32:24.347Z,46.12
2018-05-23T00:33:34.504Z,46.12
2018-05-23T00:34:44.620Z,46.02
2018-05-23T00:35:54.795Z,46.41
2018-05-23T00:37:04.916Z,46.31
2018-05-23T00:38:15.073Z,46.69
2018-05-23T00:39:25.239Z,46.98
2018-05-23T00:40:35.407Z,46.89
2018-05-23T00:41:45.553Z,46.98
2018-05-23T00:42:55.713Z,47.27
2018-05-23T00:44:05.937Z,47.15
2018-05-23T00:45:17.054Z,46.89
2018-05-23T00:46:27.316Z,47.05
2018-05-23T00:47:37.551Z,47.34
2018-05-23T00:48:47.389Z,47.63
2018-05-23T00:49:57.511Z,47.72
2018-05-23T00:51:07.693Z,48.02
2018-05-23T00:52:17.590Z,47.72
2018-05-23T00:53:27.732Z,47.82
2018-05-23T00:54:37.907Z,47.44
2018-05-23T00:55:48.040Z,48.02
2018-05-23T00:56:58.202Z,48.3
2018-05-23T00:58:08.496Z,48.3
2018-05-23T00:59:18.658Z,48.79
2018-05-23T01:00:29.008Z,49.07
2018-05-23T01:01:39.257Z,49.07
2018-05-23T01:02:49.424Z,49.26
2018-05-23T01:03:59.625Z,49.74
2018-05-23T01:05:09.773Z,50.23
2018-05-23T01:06:19.641Z,50.03
2018-05-23T01:07:29.518Z,50.29
2018-05-23T01:08:39.647Z,50.99
2018-05-23T01:09:49.785Z,50.96
2018-05-23T01:10:59.669Z,51.06
2018-05-23T01:12:09.809Z,51.35
2018-05-23T01:13:19.993Z,51.54
2018-05-23T01:14:30.175Z,51.54
2018-05-23T01:15:40.047Z,52.6
2018-05-23T01:16:50.180Z,52.4
2018-05-23T01:18:00.349Z,52.57
2018-05-23T01:19:10.546Z,52.76
2018-05-23T01:20:20.786Z,52.76
2018-05-23T01:21:30.701Z,53.24
2018-05-23T01:22:40.625Z,53.34
2018-05-23T01:23:50.822Z,53.34
2018-05-23T01:25:00.965Z,53.15
2018-05-23T01:26:10.953Z,54.01
2018-05-23T01:27:21.257Z,54.01
2018-05-23T01:28:31.414Z,54.3
2018-05-23T01:29:41.606Z,54.3
2018-05-23T01:30:51.829Z,54.56
2018-05-23T01:32:01.785Z,54.66
2018-05-23T01:33:11.973Z,54.3
2018-05-23T01:34:21.848Z,54.39
2018-05-23T01:35:32.001Z,54.66
2018-05-23T01:36:42.426Z,54.75
2018-05-23T01:37:52.573Z,55.13
2018-05-23T01:39:02.789Z,54.94
2018-05-23T01:40:12.935Z,55.23
2018-05-23T01:41:22.933Z,55.33
2018-05-23T01:42:32.849Z,55.13
2018-05-23T01:43:42.990Z,55.52
2018-05-23T01:44:53.120Z,55.23
2018-05-23T01:46:03.264Z,55.52
2018-05-23T01:47:13.380Z,55.52
2018-05-23T01:48:23.530Z,55.62
2018-05-23T01:49:33.458Z,56.19
2018-05-23T01:50:43.076Z,55.9
2018-05-23T01:51:53.200Z,56.19
2018-05-23T01:53:03.330Z,56.19
2018-05-23T01:54:13.465Z,56.09
2018-05-23T01:55:23.340Z,56.48
2018-05-23T01:56:33.479Z,56.35
2018-05-23T01:57:43.623Z,56.29
2018-05-23T01:58:53.508Z,56.86
2018-05-23T02:00:03.630Z,56.38
2018-05-23T02:01:13.721Z,56.38
2018-05-23T02:02:23.917Z,56.45
2018-05-23T02:03:34.083Z,57.03
2018-05-23T02:04:43.901Z,56.86
2018-05-23T02:05:54.087Z,56.93
2018-05-23T02:07:03.958Z,56.83
2018-05-23T02:08:14.086Z,57.24
2018-05-23T02:09:24.247Z,57.21
2018-05-23T02:10:34.475Z,57.12
2018-05-23T02:11:44.762Z,57.21
2018-05-23T02:12:54.632Z,57.5
2018-05-23T02:14:04.771Z,57.21
2018-05-23T02:15:14.892Z,57.12
2018-05-23T02:16:25.076Z,57.21
2018-05-23T02:17:35.200Z,57.31
2018-05-23T02:18:45.368Z,57.31
2018-05-23T02:19:55.505Z,57.7
2018-05-23T02:21:05.635Z,57.79
2018-05-23T02:22:15.830Z,57.7
2018-05-23T02:23:26.055Z,57.7
2018-05-23T02:24:36.218Z,58.08
2018-05-23T02:25:45.717Z,58.08
2018-05-23T02:26:55.848Z,57.98
2018-05-23T02:28:05.991Z,58.08
2018-05-23T02:29:16.121Z,58.56
2018-05-23T02:30:26.303Z,58.46
2018-05-23T02:31:36.468Z,58.37
2018-05-23T02:32:46.601Z,58.65
2018-05-23T02:33:56.773Z,58.56
2018-05-23T02:35:06.900Z,58.37
2018-05-23T02:36:16.676Z,58.56
2018-05-23T02:37:26.801Z,58.94
2018-05-23T02:38:36.958Z,59.04
2018-05-23T02:39:46.778Z,59.04
2018-05-23T02:40:56.988Z,59.04
2018-05-23T02:42:06.897Z,59.04
2018-05-23T02:43:17.091Z,59.13
2018-05-23T02:44:27.288Z,59.01
2018-05-23T02:45:37.290Z,59.13
2018-05-23T02:46:47.498Z,59.48
2018-05-23T02:47:57.770Z,59.01
2018-05-23T02:49:07.648Z,59.11
2018-05-23T02:50:17.798Z,59.2
2018-05-23T02:51:27.943Z,59.2
2018-05-23T02:52:38.115Z,59.11
2018-05-23T02:53:48.273Z,59.2
2018-05-23T02:54:58.484Z,59.01
2018-05-23T02:56:08.351Z,59.3
2018-05-23T02:57:18.488Z,59.39
2018-05-23T02:58:28.672Z,59.48
2018-05-23T02:59:38.947Z,59.48
2018-05-23T03:00:49.126Z,59.3
2018-05-23T03:01:59.439Z,59.48
2018-05-23T03:03:09.890Z,59.48
2018-05-23T03:04:19.670Z,60.06
2018-05-23T03:05:29.547Z,60.16
2018-05-23T03:06:39.707Z,60.06
2018-05-23T03:07:49.856Z,60.06
2018-05-23T03:09:00.225Z,59.97
2018-05-23T03:10:10.525Z,60.06
2018-05-23T03:11:20.679Z,59.68
2018-05-23T03:12:30.828Z,59.97
2018-05-23T03:13:41.079Z,60.54
2018-05-23T03:14:51.224Z,60.25
2018-05-23T03:16:01.342Z,60.44
2018-05-23T03:17:11.487Z,60.25
2018-05-23T03:18:21.651Z,60.35
2018-05-23T03:19:31.791Z,60.16
2018-05-23T03:20:42.010Z,60.73
2018-05-23T03:21:52.162Z,60.44
2018-05-23T03:23:02.405Z,60.54
2018-05-23T03:24:12.621Z,60.54
2018-05-23T03:25:22.855Z,60.73
2018-05-23T03:26:33.102Z,60.93
2018-05-23T03:27:43.239Z,61.02
2018-05-23T03:28:53.535Z,60.93
2018-05-23T03:30:03.753Z,61.02
2018-05-23T03:31:13.933Z,60.83
2018-05-23T03:32:24.141Z,61.4
2018-05-23T03:33:34.010Z,60.83
2018-05-23T03:34:44.130Z,61.31
2018-05-23T03:35:54.167Z,61.5
2018-05-23T03:37:04.301Z,61.4
2018-05-23T03:38:14.444Z,60.93
2018-05-23T03:39:24.576Z,61.21
2018-05-23T03:40:34.719Z,60.93
2018-05-23T03:41:44.911Z,61.11
2018-05-23T03:42:54.452Z,60.83
2018-05-23T03:44:04.583Z,61.5
2018-05-23T03:45:14.744Z,61.5
2018-05-23T03:46:24.878Z,61.5
2018-05-23T03:47:35.042Z,61.5
2018-05-23T03:48:45.240Z,61.21
2018-05-23T03:49:55.126Z,61.31
2018-05-23T03:51:05.314Z,61.69
2018-05-23T03:52:15.534Z,61.11
2018-05-23T03:53:25.647Z,61.31
2018-05-23T03:54:35.551Z,61.21
2018-05-23T03:55:45.808Z,61.11
2018-05-23T03:56:55.956Z,61.21
2018-05-23T03:58:06.185Z,61.5
2018-05-23T03:59:16.380Z,61.5
2018-05-23T04:00:26.528Z,61.4
2018-05-23T04:01:36.769Z,61.6
2018-05-23T04:02:46.702Z,61.21
2018-05-23T04:03:56.840Z,61.21
2018-05-23T04:05:07.005Z,61.21
2018-05-23T04:06:17.198Z,61.02
2018-05-23T04:07:27.073Z,60.83
2018-05-23T04:08:37.247Z,60.93
2018-05-23T04:09:48.415Z,61.02
2018-05-23T04:10:58.608Z,60.93
2018-05-23T04:12:08.784Z,61.15
2018-05-23T04:13:18.707Z,61.02
2018-05-23T04:14:28.854Z,60.96
2018-05-23T04:15:39.019Z,61.15
2018-05-23T04:16:49.210Z,61.02
2018-05-23T04:17:59.076Z,60.86
2018-05-23T04:19:09.211Z,61.05
2018-05-23T04:20:19.076Z,61.05
2018-05-23T04:21:29.216Z,61.24
2018-05-23T04:22:39.354Z,60.86
2018-05-23T04:23:49.516Z,60.47
2018-05-23T04:24:59.760Z,60.57
2018-05-23T04:26:09.994Z,60.76
2018-05-23T04:27:20.238Z,60.19
2018-05-23T04:28:30.422Z,60.28
2018-05-23T04:29:40.635Z,60.57
2018-05-23T04:30:50.835Z,60.47
2018-05-23T04:32:01.000Z,60.57
2018-05-23T04:33:11.231Z,59.71
2018-05-23T04:34:21.471Z,60.41
2018-05-23T04:35:31.631Z,60.03
2018-05-23T04:36:41.793Z,60.22
2018-05-23T04:37:51.938Z,59.36
2018-05-23T04:39:02.109Z,59.45
2018-05-23T04:40:12.249Z,59.55
2018-05-23T04:41:22.130Z,59.74
2018-05-23T04:42:32.295Z,59.16
2018-05-23T04:43:42.416Z,59.06
2018-05-23T04:44:52.567Z,59.16
2018-05-23T04:46:02.827Z,59.45
2018-05-23T04:47:13.027Z,59.06
2018-05-23T04:48:22.940Z,59.16
2018-05-23T04:49:32.906Z,59.36
2018-05-23T04:50:43.173Z,58.97
2018-05-23T04:51:53.475Z,58.97
2018-05-23T04:53:03.718Z,58.81
2018-05-23T04:54:13.874Z,58.71
2018-05-23T04:55:24.146Z,58.33
2018-05-23T04:56:34.336Z,58.62
2018-05-23T04:57:44.511Z,58.52
2018-05-23T04:58:54.713Z,58.62
2018-05-23T05:00:04.728Z,58.71
2018-05-23T05:01:14.496Z,58.71
2018-05-23T05:02:24.648Z,58.33
2018-05-23T05:03:34.256Z,58.33
2018-05-23T05:04:44.417Z,58.23
2018-05-23T05:05:54.687Z,58.33
2018-05-23T05:07:04.876Z,58.23
2018-05-23T05:08:15.087Z,58.23
2018-05-23T05:09:25.252Z,57.95
2018-05-23T05:10:35.395Z,58.04
2018-05-23T05:11:45.547Z,58.04
2018-05-23T05:12:55.692Z,57.97
2018-05-23T05:14:05.495Z,57.3
2018-05-23T05:15:15.623Z,57.21
2018-05-23T05:16:25.865Z,57.4
2018-05-23T05:17:35.990Z,57.21
2018-05-23T05:18:46.113Z,57.4
2018-05-23T05:19:56.340Z,57.4
2018-05-23T05:21:06.620Z,57.3
2018-05-23T05:22:16.770Z,57.5
2018-05-23T05:23:27.929Z,56.82
2018-05-23T05:24:38.130Z,56.92
2018-05-23T05:25:48.359Z,57.01
2018-05-23T05:26:58.548Z,56.73
2018-05-23T05:28:08.822Z,56.44
2018-05-23T05:29:18.690Z,56.63
2018-05-23T05:30:28.513Z,56.63
2018-05-23T05:31:38.755Z,56.92
2018-05-23T05:32:49.011Z,56.76
2018-05-23T05:33:59.175Z,56.73
2018-05-23T05:35:08.787Z,56.63
2018-05-23T05:36:18.649Z,56.92
2018-05-23T05:37:28.799Z,56.92
2018-05-23T05:38:38.579Z,56.73
2018-05-23T05:39:48.607Z,56.85
2018-05-23T05:40:58.845Z,56.76
2018-05-23T05:42:08.775Z,56.85
2018-05-23T05:43:18.908Z,56.46
2018-05-23T05:44:29.058Z,56.46
2018-05-23T05:45:38.938Z,56.46
2018-05-23T05:46:49.141Z,56.08
2018-05-23T05:47:59.489Z,55.89
2018-05-23T05:49:09.479Z,55.69
2018-05-23T05:50:19.773Z,55.41
2018-05-23T05:51:29.905Z,55.51
2018-05-23T05:52:39.851Z,55.41
2018-05-23T05:53:50.203Z,55.6
2018-05-23T05:54:59.993Z,55.41
2018-05-23T05:56:10.218Z,55.51
2018-05-23T05:57:20.383Z,55.24
2018-05-23T05:58:30.540Z,55.6
2018-05-23T05:59:40.677Z,55.73
2018-05-23T06:00:50.805Z,55.73
2018-05-23T06:02:00.626Z,55.34
2018-05-23T06:03:11.360Z,55.15
2018-05-23T06:04:21.512Z,55.53
2018-05-23T06:05:31.652Z,55.24
2018-05-23T06:06:41.533Z,55.24
2018-05-23T06:07:51.672Z,55.24
2018-05-23T06:09:01.562Z,54.77
2018-05-23T06:10:11.722Z,54.41
2018-05-23T06:11:21.688Z,54.99
2018-05-23T06:12:31.564Z,54.31
2018-05-23T06:13:41.737Z,54.5
2018-05-23T06:14:51.896Z,54.6
2018-05-23T06:16:01.790Z,54.5
2018-05-23T06:17:11.973Z,54.6
2018-05-23T06:18:22.170Z,54.6
2018-05-23T06:19:32.371Z,54.31
2018-05-23T06:20:42.533Z,54.22
2018-05-23T06:21:52.668Z,54.31
2018-05-23T06:23:02.878Z,54.34
2018-05-23T06:24:13.989Z,54.14
2018-05-23T06:25:24.133Z,54.12
2018-05-23T06:26:34.259Z,53.76
2018-05-23T06:27:44.420Z,53.76
2018-05-23T06:28:54.588Z,53.66
2018-05-23T06:30:04.780Z,53.47
2018-05-23T06:31:15.000Z,53.47
2018-05-23T06:32:25.203Z,53.38
2018-05-23T06:33:35.362Z,52.99
2018-05-23T06:34:45.004Z,52.99
2018-05-23T06:35:55.364Z,53.38
2018-05-23T06:37:05.733Z,52.8
2018-05-23T06:38:15.531Z,53.11
2018-05-23T06:39:25.721Z,52.92
2018-05-23T06:40:35.843Z,53.11
2018-05-23T06:41:45.977Z,52.73
2018-05-23T06:42:55.834Z,52.83
2018-05-23T06:44:06.074Z,52.83
2018-05-23T06:45:16.338Z,52.92
2018-05-23T06:46:26.470Z,52.92
2018-05-23T06:47:35.983Z,52.73
2018-05-23T06:48:46.152Z,52.83
2018-05-23T06:49:56.346Z,52.25
2018-05-23T06:51:06.903Z,52.08
2018-05-23T06:52:17.033Z,51.98
2018-05-23T06:53:26.808Z,51.89
2018-05-23T06:54:36.965Z,51.79
2018-05-23T06:55:47.418Z,51.98
2018-05-23T06:56:57.564Z,51.6
2018-05-23T06:58:07.764Z,51.5
2018-05-23T06:59:18.050Z,51.41
2018-05-23T07:00:28.241Z,51.12
2018-05-23T07:01:38.115Z,50.73
2018-05-23T07:02:48.308Z,51.21
2018-05-23T07:03:58.561Z,51.02
2018-05-23T07:05:08.712Z,51.24
2018-05-23T07:06:18.864Z,50.57
2018-05-23T07:07:29.114Z,50.27
2018-05-23T07:08:39.299Z,50.18
2018-05-23T07:09:49.482Z,50.27
2018-05-23T07:10:59.668Z,50.47
2018-05-23T07:12:10.028Z,50.57
2018-05-23T07:13:20.177Z,50.66
2018-05-23T07:14:30.309Z,50.47
2018-05-23T07:15:40.467Z,50.18
2018-05-23T07:16:50.775Z,50.09
2018-05-23T07:18:01.031Z,49.79
2018-05-23T07:19:11.485Z,49.6
2018-05-23T07:20:21.624Z,49.79
2018-05-23T07:21:31.755Z,49.12
2018-05-23T07:22:41.652Z,49.89
2018-05-23T07:23:51.844Z,49.32
2018-05-23T07:25:01.989Z,49.24
2018-05-23T07:26:12.168Z,49.22
2018-05-23T07:27:22.345Z,49.34
2018-05-23T07:28:32.495Z,49.24
2018-05-23T07:29:42.637Z,49.24
2018-05-23T07:30:52.858Z,49.34
2018-05-23T07:32:02.809Z,49.34
2018-05-23T07:33:12.948Z,49.34
2018-05-23T07:34:23.246Z,48.76
2018-05-23T07:35:33.405Z,48.76
2018-05-23T07:36:43.594Z,49.15
2018-05-23T07:37:53.779Z,49.15
2018-05-23T07:39:03.926Z,48.76
2018-05-23T07:40:14.096Z,49.05
2018-05-23T07:41:24.003Z,48.86
2018-05-23T07:42:34.289Z,48.86
2018-05-23T07:43:44.496Z,48.76
2018-05-23T07:44:54.711Z,48.76
2018-05-23T07:46:04.852Z,48.88
2018-05-23T07:47:15.067Z,49.15
2018-05-23T07:48:25.263Z,48.69
2018-05-23T07:49:35.085Z,48.3
2018-05-23T07:50:44.958Z,48.69
2018-05-23T07:51:55.095Z,48.69
2018-05-23T07:53:05.241Z,48.59
2018-05-23T07:54:15.132Z,48.79
2018-05-23T07:55:25.282Z,48.4
2018-05-23T07:56:35.437Z,48.4
2018-05-23T07:57:45.888Z,48.52
2018-05-23T07:58:56.020Z,48.33
2018-05-23T08:00:06.181Z,47.75
2018-05-23T08:01:16.342Z,47.85
2018-05-23T08:02:26.484Z,47.85
2018-05-23T08:03:36.631Z,47.67
2018-05-23T08:04:46.787Z,47.38
2018-05-23T08:05:56.946Z,47.09
2018-05-23T08:07:07.080Z,47.58
2018-05-23T08:08:17.223Z,47
2018-05-23T08:09:27.357Z,46.9
2018-05-23T08:10:37.516Z,47.22
2018-05-23T08:11:47.735Z,46.54
2018-05-23T08:12:57.998Z,46.34
2018-05-23T08:14:08.195Z,46.64
2018-05-23T08:15:18.467Z,46.06
2018-05-23T08:16:28.651Z,46.06
2018-05-23T08:17:39.044Z,46.25
2018-05-23T08:18:49.177Z,46.25
2018-05-23T08:19:59.310Z,45.96
2018-05-23T08:21:09.464Z,45.76
2018-05-23T08:22:19.726Z,45.5
2018-05-23T08:23:29.536Z,45.4
2018-05-23T08:24:39.720Z,45.31
2018-05-23T08:25:49.968Z,45.59
2018-05-23T08:27:00.110Z,44.92
2018-05-23T08:28:10.288Z,44.94
2018-05-23T08:29:20.417Z,44.65
2018-05-23T08:30:30.604Z,43.99
2018-05-23T08:31:40.749Z,43.9
2018-05-23T08:32:50.904Z,43.34
2018-05-23T08:34:01.083Z,42.96
2018-05-23T08:35:11.285Z,43.24
2018-05-23T08:36:21.574Z,42.68
2018-05-23T08:37:31.888Z,42.3
2018-05-23T08:38:42.039Z,42.03
2018-05-23T08:39:52.255Z,41.93
2018-05-23T08:41:02.454Z,40.79
2018-05-23T08:42:12.692Z,40.31
2018-05-23T08:43:22.842Z,39.65
2018-05-23T08:44:33.039Z,39.47
2018-05-23T08:45:43.265Z,38.5
2018-05-23T08:46:53.457Z,37.66
2018-05-23T08:48:04.447Z,36.63
2018-05-23T08:49:16.824Z,35.31
2018-05-23T08:50:27.135Z,35.03
2018-05-23T08:51:37.280Z,33.8
2018-05-23T08:52:47.279Z,32.84
2018-05-23T08:53:57.439Z,32.58
2018-05-23T08:55:07.598Z,31.9
2018-05-23T08:56:17.814Z,31.54
2018-05-23T08:57:28.001Z,31.35
2018-05-23T08:58:38.171Z,31.07
2018-05-23T08:59:48.402Z,30.48
2018-05-23T09:00:58.558Z,29.71
2018-05-23T09:02:08.718Z,28.83
2018-05-23T09:03:18.895Z,29.21
2018-05-23T09:04:29.061Z,28.71
2018-05-23T09:05:40.200Z,29.17
2018-05-23T09:06:50.609Z,29.74
2018-05-23T09:08:00.783Z,29.64
2018-05-23T09:09:10.975Z,29.72
2018-05-23T09:10:20.917Z,29.53
2018-05-23T09:11:31.161Z,29.53
2018-05-23T09:12:41.602Z,29.63
2018-05-23T09:13:51.746Z,30.03
2018-05-23T09:15:02.875Z,29.74
2018-05-23T09:16:13.048Z,29.64
2018-05-23T09:17:23.252Z,29.64
2018-05-23T09:18:33.454Z,29.35
2018-05-23T09:19:43.725Z,29.06
2018-05-23T09:20:53.896Z,29.44
2018-05-23T09:22:04.045Z,28.68
2018-05-23T09:23:14.505Z,28.59
2018-05-23T09:24:24.643Z,28.22
2018-05-23T09:25:34.874Z,27.83
2018-05-23T09:26:45.039Z,27.26
2018-05-23T09:27:55.242Z,27.06
2018-05-23T09:29:05.523Z,26
2018-05-23T09:30:15.418Z,26.11
2018-05-23T09:31:26.792Z,26.01
2018-05-23T09:32:37.099Z,25.73
2018-05-23T09:33:47.291Z,25.34
2018-05-23T09:34:57.566Z,25.83
2018-05-23T09:36:07.751Z,25.83
2018-05-23T09:37:18.851Z,25.72
2018-05-23T09:38:30.004Z,25.34
2018-05-23T09:39:40.326Z,25.15
2018-05-23T09:40:50.598Z,25.16
2018-05-23T09:42:01.600Z,24.66
2018-05-23T09:43:11.793Z,24.57
2018-05-23T09:44:22.140Z,24.77
2018-05-23T09:45:33.126Z,24.58
2018-05-23T09:46:45.989Z,24.68
2018-05-23T09:47:56.377Z,23.9
2018-05-23T09:49:21.496Z,22.91
2018-05-23T09:50:32.260Z,23.02
2018-05-23T09:51:42.981Z,23.6
2018-05-23T09:52:52.509Z,23.8
2018-05-23T09:54:02.671Z,23.39
2018-05-23T09:55:12.960Z,23.58
2018-05-23T09:56:23.126Z,23.69
2018-05-23T09:57:33.286Z,23.39
2018-05-23T09:58:43.494Z,23.59
2018-05-23T09:59:54.631Z,23.88
2018-05-23T10:01:04.554Z,23
2018-05-23T10:02:14.098Z,23
2018-05-23T10:03:23.992Z,22.99
2018-05-23T10:04:34.197Z,23.19
2018-05-23T10:05:44.417Z,22.98
2018-05-23T10:06:54.603Z,22.98
2018-05-23T10:08:04.778Z,23.57
2018-05-23T10:09:14.931Z,22.78
2018-05-23T10:10:26.181Z,23.08
2018-05-23T10:11:36.364Z,22.89
2018-05-23T10:12:46.293Z,22.7
2018-05-23T10:13:56.505Z,22.41
2018-05-23T10:15:06.725Z,22.8
2018-05-23T10:16:16.902Z,23.27
2018-05-23T10:17:27.152Z,22.78
2018-05-23T10:18:37.327Z,22.41
2018-05-23T10:19:47.511Z,22.21
2018-05-23T10:20:57.682Z,21.72
2018-05-23T10:22:07.844Z,22.02
2018-05-23T10:23:17.775Z,21.83
2018-05-23T10:24:27.935Z,22.02
2018-05-23T10:25:38.124Z,21.63
2018-05-23T10:26:48.279Z,22.22
2018-05-23T10:27:58.438Z,21.44
2018-05-23T10:29:08.600Z,21.44
2018-05-23T10:30:18.802Z,21.44
2018-05-23T10:31:28.363Z,21.44
2018-05-23T10:32:38.543Z,21.53
2018-05-23T10:33:48.719Z,21.84
2018-05-23T10:34:58.914Z,21.55
2018-05-23T10:36:09.122Z,21.55
2018-05-23T10:37:19.296Z,21.64
2018-05-23T10:38:29.448Z,20.86
2018-05-23T10:39:39.615Z,21.15
2018-05-23T10:40:49.876Z,21.24
2018-05-23T10:42:00.093Z,21.52
2018-05-23T10:43:09.878Z,22.02
2018-05-23T10:44:19.808Z,22
2018-05-23T10:45:29.960Z,22.19
2018-05-23T10:46:40.152Z,22.58
2018-05-23T10:47:50.322Z,22.77
2018-05-23T10:49:01.111Z,23.15
2018-05-23T10:50:12.260Z,22.76
2018-05-23T10:51:22.446Z,23.05
2018-05-23T10:52:32.269Z,22.96
2018-05-23T10:53:42.189Z,23.34
2018-05-23T10:54:52.590Z,23.82
2018-05-23T10:56:02.506Z,24.01
2018-05-23T10:57:12.763Z,24.01
2018-05-23T10:58:23.366Z,23.72
2018-05-23T10:59:33.586Z,23.72
2018-05-23T11:00:43.765Z,23.9
2018-05-23T11:01:54.015Z,23.8
2018-05-23T11:03:04.362Z,23.9
2018-05-23T11:04:14.351Z,23.71
2018-05-23T11:05:24.545Z,23.82
2018-05-23T11:06:34.829Z,23.72
2018-05-23T11:07:44.989Z,23.93
2018-05-23T11:08:55.180Z,24.01
2018-05-23T11:10:05.646Z,23.72
2018-05-23T11:11:16.808Z,23.62
2018-05-23T11:12:27.006Z,23.44
2018-05-23T11:13:37.214Z,23.73
2018-05-23T11:14:47.557Z,23.54
2018-05-23T11:15:57.934Z,22.95
2018-05-23T11:17:08.133Z,23.05
2018-05-23T11:18:18.208Z,23.05
2018-05-23T11:19:28.383Z,23.25
2018-05-23T11:20:38.637Z,22.96
2018-05-23T11:21:48.802Z,22.96
2018-05-23T11:22:59.924Z,22.96
2018-05-23T11:24:10.138Z,22.85
2018-05-23T11:25:20.313Z,22.95
2018-05-23T11:26:29.978Z,22.95
2018-05-23T11:27:40.152Z,22.95
2018-05-23T11:28:50.436Z,22.85
2018-05-23T11:30:00.353Z,23.34
2018-05-23T11:31:10.510Z,23.54
2018-05-23T11:32:20.672Z,23.25
2018-05-23T11:33:30.840Z,22.76
2018-05-23T11:34:40.395Z,22.66
2018-05-23T11:35:49.938Z,22.56
2018-05-23T11:37:00.107Z,22.77
2018-05-23T11:38:10.304Z,22.77
2018-05-23T11:39:20.473Z,22.48
2018-05-23T11:40:30.426Z,22.77
2018-05-23T11:41:40.363Z,22.77
2018-05-23T11:42:50.284Z,22.67
2018-05-23T11:44:00.198Z,22.38
2018-05-23T11:45:10.355Z,22.48
2018-05-23T11:46:20.510Z,22.58
2018-05-23T11:47:30.158Z,22.48
2018-05-23T11:48:40.072Z,21.6
2018-05-23T11:49:50.255Z,21.81
2018-05-23T11:51:00.305Z,21.81
2018-05-23T11:52:10.640Z,21.71
2018-05-23T11:53:21.159Z,21.51
2018-05-23T11:54:31.051Z,21.5
2018-05-23T11:55:41.031Z,21.91
2018-05-23T11:56:51.186Z,21.5
2018-05-23T11:58:01.347Z,21.7
2018-05-23T11:59:11.464Z,22.17
2018-05-23T12:00:21.636Z,22.66
2018-05-23T12:01:31.835Z,23.23
2018-05-23T12:02:41.996Z,22.94
2018-05-23T12:03:51.762Z,22.94
2018-05-23T12:05:01.613Z,22.73
2018-05-23T12:06:11.834Z,23.22
2018-05-23T12:07:21.995Z,23.6
2018-05-23T12:08:32.186Z,23.79
2018-05-23T12:09:42.377Z,23.78
2018-05-23T12:10:52.650Z,23.88
2018-05-23T12:12:02.898Z,23.68
2018-05-23T12:13:13.125Z,24.45
2018-05-23T12:14:23.350Z,24.45
2018-05-23T12:15:33.566Z,24.74
2018-05-23T12:16:43.464Z,24.45
2018-05-23T12:17:53.716Z,24.84
2018-05-23T12:19:03.913Z,24.83
2018-05-23T12:20:13.829Z,24.93
2018-05-23T12:21:23.737Z,25.02
2018-05-23T12:22:33.671Z,25.2
2018-05-23T12:23:43.834Z,25.4
2018-05-23T12:24:53.462Z,25.97
2018-05-23T12:26:03.376Z,26.07
2018-05-23T12:27:12.650Z,26.07
2018-05-23T12:28:22.951Z,26.17
2018-05-23T12:29:33.133Z,26.25
2018-05-23T12:30:42.657Z,26.55
2018-05-23T12:31:52.615Z,26.65
2018-05-23T12:33:02.529Z,26.25
2018-05-23T12:34:12.332Z,26.26
2018-05-23T12:35:22.230Z,26.26
2018-05-23T12:36:32.407Z,26.06
2018-05-23T12:37:42.347Z,26.34
2018-05-23T12:38:52.558Z,27.03
2018-05-23T12:40:01.929Z,26.73
2018-05-23T12:41:12.104Z,26.54
2018-05-23T12:42:21.816Z,27.12
2018-05-23T12:43:32.005Z,27.61
2018-05-23T12:44:41.860Z,27.59
2018-05-23T12:45:51.761Z,28.08
2018-05-23T12:47:01.756Z,28.38
2018-05-23T12:48:11.659Z,28.38
2018-05-23T12:49:21.866Z,28.36
2018-05-23T12:50:32.062Z,28.75
2018-05-23T12:51:42.217Z,29.24
2018-05-23T12:52:52.378Z,29.04
2018-05-23T12:54:02.256Z,29.04
2018-05-23T12:55:12.426Z,28.94
2018-05-23T12:56:22.574Z,29.04
2018-05-23T12:57:32.724Z,29.24
2018-05-23T12:58:43.058Z,29.33
2018-05-23T12:59:53.108Z,29.33
2018-05-23T13:01:03.178Z,29.14
2018-05-23T13:02:13.093Z,28.94
2018-05-23T13:03:23.284Z,28.85
2018-05-23T13:04:33.877Z,29.14
2018-05-23T13:05:43.819Z,29.04
2018-05-23T13:06:53.987Z,29.32
2018-05-23T13:08:04.221Z,29.32
2018-05-23T13:09:14.383Z,29.51
2018-05-23T13:10:24.226Z,29.61
2018-05-23T13:11:34.391Z,29.9
2018-05-23T13:12:44.258Z,29.71
2018-05-23T13:13:54.848Z,29.51
2018-05-23T13:15:05.114Z,29.32
2018-05-23T13:16:15.300Z,29.71
2018-05-23T13:17:25.191Z,29.32
2018-05-23T13:18:35.345Z,29.71
2018-05-23T13:19:46.492Z,29.52
2018-05-23T13:20:56.038Z,29.43
2018-05-23T13:22:06.458Z,29.43
2018-05-23T13:23:16.738Z,29.43
2018-05-23T13:24:26.624Z,29.52
2018-05-23T13:25:36.763Z,29.25
2018-05-23T13:26:46.942Z,29.15
2018-05-23T13:27:56.913Z,29.64
2018-05-23T13:29:07.195Z,29.46
2018-05-23T13:30:18.322Z,28.78
2018-05-23T13:31:28.924Z,29.16
2018-05-23T13:32:40.083Z,29.36
2018-05-23T13:33:50.245Z,28.78
2018-05-23T13:35:00.421Z,28.49
2018-05-23T13:36:10.553Z,28.29
2018-05-23T13:37:21.702Z,28.58
2018-05-23T13:38:31.295Z,28.5
2018-05-23T13:39:41.456Z,28.5
2018-05-23T13:40:51.625Z,28.89
2018-05-23T13:42:01.784Z,28.59
2018-05-23T13:43:12.063Z,28.2
2018-05-23T13:44:22.627Z,28.11
2018-05-23T13:45:32.836Z,28.4
2018-05-23T13:46:43.041Z,28.4
2018-05-23T13:47:52.912Z,28.69
2018-05-23T13:49:03.083Z,28.4
2018-05-23T13:50:13.260Z,28.49
2018-05-23T13:51:23.161Z,28.39
2018-05-23T13:52:33.340Z,28.78
2018-05-23T13:53:43.144Z,29.46
2018-05-23T13:54:56.054Z,28.78
2018-05-23T13:57:22.270Z,29.16
2018-05-23T13:59:46.088Z,28.49
2018-05-23T14:00:56.306Z,28.39
2018-05-23T14:02:06.580Z,28.29
2018-05-23T14:03:18.011Z,28.58
2018-05-23T14:04:28.200Z,28.19
2018-05-23T14:05:38.385Z,28.39
2018-05-23T14:08:02.448Z,28.29
2018-05-23T14:09:12.631Z,28.19
2018-05-23T14:12:52.800Z,27.51
2018-05-23T14:14:02.723Z,27.7
2018-05-23T14:15:12.680Z,27.9
2018-05-23T14:16:25.447Z,28.19
2018-05-23T14:17:35.597Z,28.09
2018-05-23T14:18:45.758Z,28.28
2018-05-23T14:19:56.009Z,28.08
2018-05-23T14:21:06.390Z,27.98
2018-05-23T14:22:16.598Z,28.18
2018-05-23T14:23:26.774Z,28.19
2018-05-23T14:24:36.972Z,28.08
2018-05-23T14:25:46.902Z,27.9
2018-05-23T14:26:57.067Z,28.09
2018-05-23T14:28:07.243Z,28.28
2018-05-23T14:29:17.438Z,27.9
2018-05-23T14:30:27.641Z,28.09
2018-05-23T14:31:37.890Z,27.51
2018-05-23T14:32:48.127Z,28
2018-05-23T14:33:58.368Z,27.61
2018-05-23T14:35:08.285Z,27.8
2018-05-23T14:36:18.499Z,27.51
2018-05-23T14:37:28.893Z,27.42
2018-05-23T14:38:39.145Z,27.7
2018-05-23T14:39:49.419Z,27.8
2018-05-23T14:40:59.595Z,27.7
2018-05-23T14:42:09.910Z,27.51
2018-05-23T14:43:20.099Z,27.61
2018-05-23T14:44:30.366Z,27.42
2018-05-23T14:45:40.537Z,27.32
2018-05-23T14:46:50.781Z,27.12
2018-05-23T14:48:00.690Z,27.69
2018-05-23T14:49:10.877Z,27.69
2018-05-23T14:50:21.100Z,27.69
2018-05-23T14:51:31.313Z,27.69
2018-05-23T14:52:41.479Z,27.69
2018-05-23T14:53:51.646Z,27.5
2018-05-23T14:55:01.872Z,27.79
2018-05-23T14:56:11.920Z,27.79
2018-05-23T14:57:22.405Z,27.61
2018-05-23T14:58:32.566Z,27.69
2018-05-23T14:59:42.727Z,27.69
2018-05-23T15:00:52.914Z,27.59
2018-05-23T15:02:02.825Z,27.69
2018-05-23T15:03:13.016Z,27.69
2018-05-23T15:04:23.196Z,27.51
2018-05-23T15:05:33.390Z,27.7
2018-05-23T15:06:44.532Z,27.31
2018-05-23T15:07:54.773Z,27.61
2018-05-23T15:09:05.193Z,27.61
2018-05-23T15:10:15.404Z,27.12
2018-05-23T15:11:25.587Z,27.12
2018-05-23T15:12:35.818Z,27.51
2018-05-23T15:13:45.989Z,27.12
2018-05-23T15:14:56.268Z,26.73